createdAt,value
2018-10-09T00:01:01.657Z,99.90
2018-10-09T00:02:05.382Z,99.90
2018-10-09T00:03:08.710Z,99.90
2018-10-09T00:04:12.039Z,99.90
2018-10-09T00:05:15.412Z,99.90
2018-10-09T00:06:18.760Z,99.90
2018-10-09T00:07:22.257Z,99.90
2018-10-09T00:08:25.626Z,99.90
2018-10-09T00:09:28.956Z,99.90
2018-10-09T00:10:32.295Z,99.90
2018-10-09T00:11:35.680Z,99.90
2018-10-09T00:12:39.043Z,99.90
2018-10-09T00:13:42.427Z,99.90
2018-10-09T00:14:45.768Z,99.90
2018-10-09T00:15:49.121Z,99.90
2018-10-09T00:16:52.447Z,99.90
2018-10-09T00:17:55.786Z,99.90
2018-10-09T00:18:59.183Z,99.90
2018-10-09T00:20:02.596Z,99.90
2018-10-09T00:21:05.946Z,99.90
2018-10-09T00:22:09.351Z,99.90
2018-10-09T00:23:12.775Z,99.90
2018-10-09T00:24:16.114Z,99.90
2018-10-09T00:25:19.460Z,99.90
2018-10-09T00:26:22.800Z,99.90
2018-10-09T00:27:26.125Z,99.90
2018-10-09T00:28:29.495Z,99.90
2018-10-09T00:29:32.833Z,99.90
2018-10-09T00:30:36.167Z,99.90
2018-10-09T00:31:39.505Z,99.90
2018-10-09T00:32:42.874Z,99.90
2018-10-09T00:33:46.262Z,99.90
2018-10-09T00:34:49.615Z,99.90
2018-10-09T00:35:52.943Z,99.90
2018-10-09T00:36:56.279Z,99.90
2018-10-09T00:37:59.608Z,99.90
2018-10-09T00:39:03.733Z,99.90
2018-10-09T00:40:07.067Z,99.90
2018-10-09T00:41:10.622Z,99.90
2018-10-09T00:42:13.976Z,99.90
2018-10-09T00:43:17.312Z,99.90
2018-10-09T00:44:20.689Z,99.90
2018-10-09T00:45:24.051Z,99.90
2018-10-09T00:46:27.384Z,99.90
2018-10-09T00:47:30.787Z,99.90
2018-10-09T00:48:34.158Z,99.90
2018-10-09T00:49:37.520Z,99.90
2018-10-09T00:50:40.855Z,99.90
2018-10-09T00:51:44.249Z,99.90
2018-10-09T00:52:47.723Z,99.90
2018-10-09T00:53:51.066Z,99.90
2018-10-09T00:54:54.395Z,99.90
2018-10-09T00:55:57.727Z,99.90
2018-10-09T00:57:01.108Z,99.90
2018-10-09T00:58:04.462Z,99.90
2018-10-09T00:59:07.812Z,99.90
2018-10-09T01:00:11.178Z,99.90
2018-10-09T01:01:14.532Z,99.90
2018-10-09T01:02:18.160Z,99.90
2018-10-09T01:03:21.492Z,99.90
2018-10-09T01:04:24.827Z,99.90
2018-10-09T01:05:28.193Z,99.90
2018-10-09T01:06:31.530Z,99.90
2018-10-09T01:07:34.884Z,99.90
2018-10-09T01:08:38.221Z,99.90
2018-10-09T01:09:41.564Z,99.90
2018-10-09T01:10:44.892Z,99.90
2018-10-09T01:11:48.287Z,99.90
2018-10-09T01:12:51.627Z,99.90
2018-10-09T01:13:54.952Z,99.90
2018-10-09T01:14:58.287Z,99.90
2018-10-09T01:16:01.620Z,99.90
2018-10-09T01:17:05.003Z,99.90
2018-10-09T01:18:08.360Z,99.90
2018-10-09T01:19:11.735Z,99.90
2018-10-09T01:20:19.507Z,99.90
2018-10-09T01:21:22.843Z,99.90
2018-10-09T01:22:26.175Z,99.90
2018-10-09T01:23:29.491Z,99.90
2018-10-09T01:24:32.847Z,99.90
2018-10-09T01:25:36.612Z,99.90
2018-10-09T01:26:39.945Z,99.90
2018-10-09T01:27:43.340Z,99.90
2018-10-09T01:28:46.668Z,99.90
2018-10-09T01:29:50.012Z,99.90
2018-10-09T01:30:53.344Z,99.90
2018-10-09T01:31:56.680Z,99.90
2018-10-09T01:33:00.359Z,99.90
2018-10-09T01:34:03.695Z,99.90
2018-10-09T01:35:07.155Z,99.90
2018-10-09T01:36:10.514Z,99.90
2018-10-09T01:37:13.835Z,99.90
2018-10-09T01:38:17.203Z,99.90
2018-10-09T01:39:20.555Z,99.90
2018-10-09T01:40:23.879Z,99.90
2018-10-09T01:41:27.243Z,99.90
2018-10-09T01:42:30.600Z,99.90
2018-10-09T01:43:33.940Z,99.90
2018-10-09T01:44:37.275Z,99.90
2018-10-09T01:45:40.647Z,99.90
2018-10-09T01:46:43.982Z,99.90
2018-10-09T01:47:47.315Z,99.90
2018-10-09T01:48:50.671Z,99.90
2018-10-09T01:49:54.008Z,99.90
2018-10-09T01:50:57.353Z,99.90
2018-10-09T01:52:00.751Z,99.90
2018-10-09T01:53:04.083Z,99.90
2018-10-09T01:54:07.513Z,99.90
2018-10-09T01:55:10.844Z,99.90
2018-10-09T01:56:14.243Z,99.90
2018-10-09T01:57:17.579Z,99.90
2018-10-09T01:58:20.907Z,99.90
2018-10-09T01:59:24.259Z,99.90
2018-10-09T02:00:27.600Z,99.90
2018-10-09T02:01:30.967Z,99.90
2018-10-09T02:02:34.303Z,99.90
2018-10-09T02:03:37.636Z,99.90
2018-10-09T02:04:41.000Z,99.90
2018-10-09T02:05:44.337Z,99.90
2018-10-09T02:06:47.655Z,99.90
2018-10-09T02:07:50.991Z,99.90
2018-10-09T02:08:54.315Z,99.90
2018-10-09T02:09:57.695Z,99.90
2018-10-09T02:11:01.124Z,99.90
2018-10-09T02:12:04.456Z,99.90
2018-10-09T02:13:07.795Z,99.90
2018-10-09T02:14:11.221Z,99.90
2018-10-09T02:15:14.552Z,99.90
2018-10-09T02:16:17.967Z,99.90
2018-10-09T02:17:21.327Z,99.90
2018-10-09T02:18:24.667Z,99.90
2018-10-09T02:19:28.021Z,99.90
2018-10-09T02:20:31.353Z,99.90
2018-10-09T02:21:34.799Z,99.90
2018-10-09T02:22:38.136Z,99.90
2018-10-09T02:23:41.464Z,99.90
2018-10-09T02:24:44.830Z,99.90
2018-10-09T02:25:48.229Z,99.90
2018-10-09T02:26:51.567Z,99.90
2018-10-09T02:27:54.911Z,99.90
2018-10-09T02:28:58.292Z,99.90
2018-10-09T02:30:01.623Z,99.90
2018-10-09T02:31:04.994Z,99.90
2018-10-09T02:32:08.334Z,99.90
2018-10-09T02:33:11.702Z,99.90
2018-10-09T02:34:15.079Z,99.90
2018-10-09T02:35:18.496Z,99.90
2018-10-09T02:36:21.836Z,99.90
2018-10-09T02:37:25.185Z,99.90
2018-10-09T02:38:28.548Z,99.90
2018-10-09T02:39:31.924Z,99.90
2018-10-09T02:40:35.291Z,99.90
2018-10-09T02:41:38.627Z,99.90
2018-10-09T02:42:42.020Z,99.90
2018-10-09T02:43:45.355Z,99.90
2018-10-09T02:44:48.777Z,99.90
2018-10-09T02:45:52.153Z,99.90
2018-10-09T02:46:55.502Z,99.90
2018-10-09T02:47:58.848Z,99.90
2018-10-09T02:49:02.207Z,99.90
2018-10-09T02:50:06.000Z,99.90
2018-10-09T02:51:09.341Z,99.90
2018-10-09T02:52:12.671Z,99.90
2018-10-09T02:53:15.991Z,99.90
2018-10-09T02:54:19.552Z,99.90
2018-10-09T02:55:22.887Z,99.90
2018-10-09T02:56:26.225Z,99.90
2018-10-09T02:57:29.679Z,99.90
2018-10-09T02:58:33.015Z,99.90
2018-10-09T02:59:36.372Z,99.90
2018-10-09T03:00:39.727Z,99.90
2018-10-09T03:01:43.067Z,99.90
2018-10-09T03:02:46.404Z,99.90
2018-10-09T03:03:49.747Z,99.90
2018-10-09T03:04:53.114Z,99.90
2018-10-09T03:05:56.467Z,99.90
2018-10-09T03:06:59.793Z,99.90
2018-10-09T03:08:03.164Z,99.90
2018-10-09T03:09:07.123Z,99.90
2018-10-09T03:10:10.455Z,99.90
2018-10-09T03:11:13.829Z,99.90
2018-10-09T03:12:17.199Z,99.90
2018-10-09T03:13:20.527Z,99.90
2018-10-09T03:14:23.888Z,99.90
2018-10-09T03:15:27.219Z,99.90
2018-10-09T03:16:30.626Z,99.90
2018-10-09T03:17:33.989Z,99.90
2018-10-09T03:18:37.326Z,99.90
2018-10-09T03:19:40.700Z,99.90
2018-10-09T03:20:44.088Z,99.90
2018-10-09T03:21:47.452Z,99.90
2018-10-09T03:22:50.834Z,99.90
2018-10-09T03:23:54.225Z,99.90
2018-10-09T03:24:57.589Z,99.90
2018-10-09T03:26:00.967Z,99.90
2018-10-09T03:27:04.308Z,99.90
2018-10-09T03:28:07.648Z,99.90
2018-10-09T03:29:10.975Z,99.90
2018-10-09T03:30:14.356Z,99.90
2018-10-09T03:31:17.694Z,99.90
2018-10-09T03:32:21.044Z,99.90
2018-10-09T03:33:24.376Z,99.90
2018-10-09T03:34:27.757Z,99.90
2018-10-09T03:35:31.093Z,99.90
2018-10-09T03:36:34.464Z,99.90
2018-10-09T03:37:37.867Z,99.90
2018-10-09T03:38:41.215Z,99.90
2018-10-09T03:39:44.611Z,99.90
2018-10-09T03:40:47.939Z,99.90
2018-10-09T03:41:51.334Z,99.90
2018-10-09T03:42:54.677Z,99.90
2018-10-09T03:43:58.006Z,99.90
2018-10-09T03:45:01.403Z,99.90
2018-10-09T03:46:04.736Z,99.90
2018-10-09T03:47:08.125Z,99.90
2018-10-09T03:48:11.448Z,99.90
2018-10-09T03:49:14.859Z,99.90
2018-10-09T03:50:18.196Z,99.90
2018-10-09T03:51:21.532Z,99.90
2018-10-09T03:52:24.859Z,99.90
2018-10-09T03:53:28.211Z,99.90
2018-10-09T03:54:31.560Z,99.90
2018-10-09T03:55:34.903Z,99.90
2018-10-09T03:56:38.311Z,99.90
2018-10-09T03:57:41.644Z,99.90
2018-10-09T03:58:44.970Z,99.90
2018-10-09T03:59:48.296Z,99.90
2018-10-09T04:00:51.659Z,99.90
2018-10-09T04:01:55.015Z,99.90
2018-10-09T04:02:58.351Z,99.90
2018-10-09T04:04:01.694Z,99.90
2018-10-09T04:05:05.096Z,99.90
2018-10-09T04:06:08.476Z,99.90
2018-10-09T04:07:11.812Z,99.90
2018-10-09T04:08:15.204Z,99.90
2018-10-09T04:09:18.553Z,99.90
2018-10-09T04:10:21.902Z,99.90
2018-10-09T04:11:25.268Z,99.90
2018-10-09T04:12:28.590Z,99.90
2018-10-09T04:13:32.013Z,99.90
2018-10-09T04:14:35.355Z,99.90
2018-10-09T04:15:38.717Z,99.90
2018-10-09T04:16:42.088Z,99.90
2018-10-09T04:17:45.415Z,99.90
2018-10-09T04:18:48.774Z,99.90
2018-10-09T04:19:52.111Z,99.90
2018-10-09T04:20:55.444Z,99.90
2018-10-09T04:21:58.772Z,99.90
2018-10-09T04:23:02.149Z,99.90
2018-10-09T04:24:05.499Z,99.90
2018-10-09T04:25:08.827Z,99.90
2018-10-09T04:26:12.163Z,99.90
2018-10-09T04:27:15.496Z,99.90
2018-10-09T04:28:18.911Z,99.90
2018-10-09T04:29:22.298Z,99.90
2018-10-09T04:30:25.676Z,99.90
2018-10-09T04:31:29.072Z,99.90
2018-10-09T04:32:32.409Z,99.90
2018-10-09T04:33:35.753Z,99.90
2018-10-09T04:34:39.097Z,99.90
2018-10-09T04:35:42.546Z,99.90
2018-10-09T04:36:45.852Z,99.90
2018-10-09T04:37:49.187Z,99.90
2018-10-09T04:38:52.532Z,99.90
2018-10-09T04:39:55.872Z,99.90
2018-10-09T04:40:59.251Z,99.90
2018-10-09T04:42:02.575Z,99.90
2018-10-09T04:43:05.963Z,99.90
2018-10-09T04:44:09.308Z,99.90
2018-10-09T04:45:12.671Z,99.90
2018-10-09T04:46:16.008Z,99.90
2018-10-09T04:47:19.436Z,99.90
2018-10-09T04:48:22.843Z,99.90
2018-10-09T04:49:26.253Z,99.90
2018-10-09T04:50:29.968Z,99.90
2018-10-09T04:51:33.335Z,99.90
2018-10-09T04:52:36.700Z,99.90
2018-10-09T04:53:40.072Z,99.90
2018-10-09T04:54:43.422Z,99.90
2018-10-09T04:55:46.788Z,99.90
2018-10-09T04:56:50.131Z,99.90
2018-10-09T04:57:53.476Z,99.90
2018-10-09T04:58:56.839Z,99.90
2018-10-09T05:00:00.192Z,99.90
2018-10-09T05:01:03.528Z,99.90
2018-10-09T05:02:13.583Z,99.90
2018-10-09T05:03:16.955Z,99.90
2018-10-09T05:04:20.312Z,99.90
2018-10-09T05:05:23.653Z,99.90
2018-10-09T05:06:27.004Z,99.90
2018-10-09T05:07:30.386Z,99.90
2018-10-09T05:08:33.959Z,99.90
2018-10-09T05:09:37.295Z,99.90
2018-10-09T05:10:40.632Z,99.90
2018-10-09T05:11:43.970Z,99.90
2018-10-09T05:12:47.316Z,99.90
2018-10-09T05:13:50.689Z,99.90
2018-10-09T05:14:54.024Z,99.90
2018-10-09T05:15:57.392Z,99.90
2018-10-09T05:17:00.731Z,99.90
2018-10-09T05:18:04.085Z,99.90
2018-10-09T05:19:07.520Z,99.90
2018-10-09T05:20:11.395Z,99.90
2018-10-09T05:21:14.766Z,99.90
2018-10-09T05:22:18.168Z,99.90
2018-10-09T05:23:21.548Z,99.90
2018-10-09T05:24:24.892Z,99.90
2018-10-09T05:25:28.240Z,99.90
2018-10-09T05:26:31.585Z,99.90
2018-10-09T05:27:34.929Z,99.90
2018-10-09T05:28:38.260Z,99.90
2018-10-09T05:29:41.615Z,99.90
2018-10-09T05:30:44.952Z,99.90
2018-10-09T05:31:48.364Z,99.90
2018-10-09T05:32:51.716Z,99.90
2018-10-09T05:33:55.069Z,99.90
2018-10-09T05:34:58.452Z,99.90
2018-10-09T05:36:01.776Z,99.90
2018-10-09T05:37:05.132Z,99.90
2018-10-09T05:38:08.482Z,99.90
2018-10-09T05:39:11.847Z,99.90
2018-10-09T05:40:15.243Z,99.90
2018-10-09T05:41:18.580Z,99.90
2018-10-09T05:42:21.942Z,99.90
2018-10-09T05:43:25.276Z,99.90
2018-10-09T05:44:28.613Z,99.90
2018-10-09T05:45:36.446Z,99.90
2018-10-09T05:46:39.776Z,99.90
2018-10-09T05:47:43.116Z,99.90
2018-10-09T05:48:46.438Z,99.90
2018-10-09T05:49:49.755Z,99.90
2018-10-09T05:50:53.215Z,99.90
2018-10-09T05:51:56.548Z,99.90
2018-10-09T05:52:59.901Z,99.90
2018-10-09T05:54:03.291Z,99.90
2018-10-09T05:55:07.435Z,99.90
2018-10-09T05:56:10.811Z,99.90
2018-10-09T05:57:14.140Z,99.90
2018-10-09T05:58:17.499Z,99.90
2018-10-09T05:59:20.831Z,99.90
2018-10-09T06:00:24.298Z,99.90
2018-10-09T06:01:27.632Z,99.90
2018-10-09T06:02:30.968Z,99.90
2018-10-09T06:03:34.295Z,99.90
2018-10-09T06:04:37.851Z,99.90
2018-10-09T06:05:41.256Z,99.90
2018-10-09T06:06:44.597Z,99.90
2018-10-09T06:07:47.924Z,99.90
2018-10-09T06:08:51.255Z,99.90
2018-10-09T06:09:54.586Z,99.90
2018-10-09T06:10:57.988Z,99.90
2018-10-09T06:12:01.361Z,99.90
2018-10-09T06:13:04.720Z,99.90
2018-10-09T06:14:08.395Z,99.90
2018-10-09T06:15:11.737Z,99.90
2018-10-09T06:16:15.104Z,99.90
2018-10-09T06:17:18.450Z,99.90
2018-10-09T06:18:22.031Z,99.90
2018-10-09T06:19:25.374Z,99.90
2018-10-09T06:20:28.708Z,99.90
2018-10-09T06:21:32.095Z,99.90
2018-10-09T06:22:35.452Z,99.90
2018-10-09T06:23:38.796Z,99.90
2018-10-09T06:24:42.164Z,99.90
2018-10-09T06:25:45.492Z,99.90
2018-10-09T06:26:48.876Z,99.90
2018-10-09T06:27:52.236Z,99.90
2018-10-09T06:28:55.584Z,99.90
2018-10-09T06:29:58.920Z,99.90
2018-10-09T06:31:02.260Z,99.90
2018-10-09T06:32:05.645Z,99.90
2018-10-09T06:33:08.988Z,99.90
2018-10-09T06:34:12.388Z,99.90
2018-10-09T06:35:15.726Z,99.90
2018-10-09T06:36:19.082Z,99.90
2018-10-09T06:37:22.498Z,99.90
2018-10-09T06:38:25.786Z,99.90
2018-10-09T06:39:29.171Z,99.90
2018-10-09T06:40:32.698Z,99.90
2018-10-09T06:41:35.973Z,99.90
2018-10-09T06:42:39.347Z,99.90
2018-10-09T06:43:42.697Z,99.90
2018-10-09T06:44:46.015Z,99.90
2018-10-09T06:45:49.387Z,99.90
2018-10-09T06:46:52.737Z,99.90
2018-10-09T06:47:56.121Z,99.90
2018-10-09T06:48:59.469Z,99.90
2018-10-09T06:50:02.817Z,99.90
2018-10-09T06:51:06.380Z,99.90
2018-10-09T06:52:09.716Z,99.90
2018-10-09T06:53:13.164Z,99.90
2018-10-09T06:54:16.506Z,99.90
2018-10-09T06:55:19.843Z,99.90
2018-10-09T06:56:23.187Z,99.90
2018-10-09T06:57:26.524Z,99.90
2018-10-09T06:58:29.948Z,99.90
2018-10-09T06:59:33.291Z,99.90
2018-10-09T07:00:36.644Z,99.90
2018-10-09T07:01:40.044Z,99.90
2018-10-09T07:02:43.390Z,99.90
2018-10-09T07:03:46.774Z,99.90
2018-10-09T07:04:50.124Z,99.90
2018-10-09T07:05:53.459Z,99.90
2018-10-09T07:06:56.825Z,99.90
2018-10-09T07:08:00.171Z,99.90
2018-10-09T07:09:04.753Z,99.90
2018-10-09T07:10:08.130Z,99.90
2018-10-09T07:11:11.589Z,99.90
2018-10-09T07:12:14.832Z,99.90
2018-10-09T07:13:18.201Z,99.90
2018-10-09T07:14:21.612Z,99.90
2018-10-09T07:15:24.985Z,99.90
2018-10-09T07:16:28.396Z,99.90
2018-10-09T07:17:31.744Z,99.90
2018-10-09T07:18:35.084Z,99.90
2018-10-09T07:19:38.449Z,99.90
2018-10-09T07:20:41.811Z,99.90
2018-10-09T07:21:45.169Z,99.90
2018-10-09T07:22:48.524Z,99.90
2018-10-09T07:23:51.856Z,99.90
2018-10-09T07:24:55.255Z,99.90
2018-10-09T07:25:58.592Z,99.90
2018-10-09T07:27:01.932Z,99.90
2018-10-09T07:28:05.344Z,99.90
2018-10-09T07:29:08.732Z,99.90
2018-10-09T07:30:12.118Z,99.90
2018-10-09T07:31:15.531Z,99.90
2018-10-09T07:32:18.893Z,99.90
2018-10-09T07:33:22.232Z,99.90
2018-10-09T07:34:25.575Z,99.90
2018-10-09T07:35:28.927Z,99.90
2018-10-09T07:36:32.341Z,99.90
2018-10-09T07:37:35.756Z,99.90
2018-10-09T07:38:39.060Z,99.90
2018-10-09T07:39:42.401Z,99.90
2018-10-09T07:40:48.665Z,99.90
2018-10-09T07:41:52.048Z,99.90
2018-10-09T07:42:55.389Z,99.90
2018-10-09T07:43:58.755Z,99.90
2018-10-09T07:45:02.117Z,99.90
2018-10-09T07:46:05.580Z,99.90
2018-10-09T07:47:09.088Z,99.90
2018-10-09T07:48:12.424Z,99.90
2018-10-09T07:49:15.813Z,99.90
2018-10-09T07:50:19.160Z,99.90
2018-10-09T07:51:22.510Z,99.90
2018-10-09T07:52:25.893Z,99.90
2018-10-09T07:53:29.220Z,99.90
2018-10-09T07:54:32.614Z,99.90
2018-10-09T07:55:35.956Z,99.90
2018-10-09T07:56:39.298Z,99.90
2018-10-09T07:57:42.686Z,99.90
2018-10-09T07:58:46.082Z,99.90
2018-10-09T07:59:49.444Z,99.90
2018-10-09T08:00:52.788Z,99.90
2018-10-09T08:01:56.337Z,99.90
2018-10-09T08:02:59.721Z,99.90
2018-10-09T08:04:03.068Z,99.90
2018-10-09T08:05:06.464Z,99.90
2018-10-09T08:06:09.804Z,99.90
2018-10-09T08:07:13.217Z,99.90
2018-10-09T08:08:16.867Z,99.90
2018-10-09T08:09:20.240Z,99.90
2018-10-09T08:10:23.606Z,99.90
2018-10-09T08:11:26.975Z,99.90
2018-10-09T08:12:30.382Z,99.90
2018-10-09T08:13:33.748Z,99.90
2018-10-09T08:14:37.177Z,99.90
2018-10-09T08:15:40.522Z,99.90
2018-10-09T08:16:43.917Z,99.90
2018-10-09T08:17:47.273Z,99.90
2018-10-09T08:18:50.620Z,99.90
2018-10-09T08:19:53.973Z,99.90
2018-10-09T08:20:57.320Z,99.90
2018-10-09T08:22:00.716Z,99.90
2018-10-09T08:23:04.057Z,99.90
2018-10-09T08:24:07.484Z,99.90
2018-10-09T08:25:10.828Z,99.90
2018-10-09T08:26:14.196Z,99.90
2018-10-09T08:27:17.591Z,99.90
2018-10-09T08:28:20.949Z,99.90
2018-10-09T08:29:24.301Z,99.90
2018-10-09T08:30:27.649Z,99.90
2018-10-09T08:31:31.054Z,99.90
2018-10-09T08:32:34.460Z,99.90
2018-10-09T08:33:37.814Z,99.90
2018-10-09T08:34:41.216Z,99.90
2018-10-09T08:35:44.584Z,99.90
2018-10-09T08:36:47.977Z,99.90
2018-10-09T08:37:51.337Z,99.90
2018-10-09T08:38:54.736Z,99.90
2018-10-09T08:39:58.154Z,99.90
2018-10-09T08:41:01.501Z,99.90
2018-10-09T08:42:04.899Z,99.90
2018-10-09T08:43:08.246Z,99.90
2018-10-09T08:44:11.596Z,99.90
2018-10-09T08:45:14.948Z,99.90
2018-10-09T08:46:18.310Z,99.90
2018-10-09T08:47:21.708Z,99.90
2018-10-09T08:48:25.061Z,99.90
2018-10-09T08:49:28.409Z,99.90
2018-10-09T08:50:31.756Z,99.90
2018-10-09T08:51:35.256Z,99.90
2018-10-09T08:52:38.625Z,99.90
2018-10-09T08:53:41.974Z,99.90
2018-10-09T08:54:45.324Z,99.90
2018-10-09T08:55:48.684Z,99.90
2018-10-09T08:56:52.074Z,99.90
2018-10-09T08:57:55.428Z,99.90
2018-10-09T08:58:58.795Z,99.90
2018-10-09T09:00:02.201Z,99.90
2018-10-09T09:01:05.566Z,99.90
2018-10-09T09:02:08.918Z,99.90
2018-10-09T09:03:12.281Z,99.90
2018-10-09T09:04:15.639Z,99.90
2018-10-09T09:05:19.101Z,99.90
2018-10-09T09:06:22.447Z,99.90
2018-10-09T09:07:25.777Z,99.90
2018-10-09T09:08:29.456Z,99.90
2018-10-09T09:09:32.859Z,99.90
2018-10-09T09:10:36.264Z,99.90
2018-10-09T09:11:39.660Z,99.90
2018-10-09T09:12:43.013Z,99.90
2018-10-09T09:13:46.367Z,99.90
2018-10-09T09:14:49.717Z,99.90
2018-10-09T09:15:53.085Z,99.90
2018-10-09T09:16:56.476Z,99.90
2018-10-09T09:17:59.828Z,99.90
2018-10-09T09:19:03.186Z,99.90
2018-10-09T09:20:06.556Z,99.90
2018-10-09T09:21:09.981Z,99.90
2018-10-09T09:22:13.360Z,99.90
2018-10-09T09:23:16.701Z,99.90
2018-10-09T09:24:20.069Z,99.90
2018-10-09T09:25:23.413Z,99.90
2018-10-09T09:26:26.817Z,99.90
2018-10-09T09:27:30.277Z,99.90
2018-10-09T09:28:33.555Z,99.90
2018-10-09T09:29:36.900Z,99.90
2018-10-09T09:30:40.249Z,99.90
2018-10-09T09:31:43.632Z,99.90
2018-10-09T09:32:46.982Z,99.90
2018-10-09T09:33:50.363Z,99.90
2018-10-09T09:34:53.705Z,99.90
2018-10-09T09:35:57.048Z,99.90
2018-10-09T09:37:00.405Z,99.90
2018-10-09T09:38:03.779Z,99.90
2018-10-09T09:39:08.163Z,99.90
2018-10-09T09:40:11.491Z,99.90
2018-10-09T09:41:14.896Z,99.90
2018-10-09T09:42:18.264Z,99.90
2018-10-09T09:43:21.620Z,99.90
2018-10-09T09:44:24.964Z,99.90
2018-10-09T09:45:28.308Z,99.90
2018-10-09T09:46:31.701Z,99.90
2018-10-09T09:47:35.037Z,99.90
2018-10-09T09:48:38.396Z,99.90
2018-10-09T09:49:41.761Z,99.90
2018-10-09T09:50:45.160Z,99.90
2018-10-09T09:51:48.579Z,99.90
2018-10-09T09:52:51.940Z,99.90
2018-10-09T09:53:55.299Z,99.90
2018-10-09T09:54:58.653Z,99.90
2018-10-09T09:56:02.020Z,99.90
2018-10-09T09:57:05.417Z,99.90
2018-10-09T09:58:08.955Z,99.90
2018-10-09T09:59:12.331Z,99.90
2018-10-09T10:00:20.907Z,99.90
2018-10-09T10:01:29.625Z,99.90
2018-10-09T10:02:33.036Z,99.90
2018-10-09T10:03:37.341Z,99.90
2018-10-09T10:04:40.720Z,99.90
2018-10-09T10:05:44.077Z,99.90
2018-10-09T10:06:47.420Z,99.90
2018-10-09T10:07:50.808Z,99.90
2018-10-09T10:08:54.165Z,99.90
2018-10-09T10:09:57.517Z,99.90
2018-10-09T10:11:00.856Z,99.90
2018-10-09T10:12:04.208Z,99.90
2018-10-09T10:13:07.632Z,99.90
2018-10-09T10:14:10.988Z,99.90
2018-10-09T10:15:14.353Z,99.60
2018-10-09T10:16:17.707Z,99.30
2018-10-09T10:17:21.103Z,98.70
2018-10-09T10:18:24.464Z,98.00
2018-10-09T10:19:27.819Z,98.10
2018-10-09T10:20:31.226Z,98.30
2018-10-09T10:21:34.584Z,97.70
2018-10-09T10:22:38.116Z,97.80
2018-10-09T10:23:41.479Z,97.60
2018-10-09T10:24:44.845Z,97.70
2018-10-09T10:25:48.320Z,98.00
2018-10-09T10:26:51.690Z,97.90
2018-10-09T10:27:55.084Z,98.10
2018-10-09T10:28:58.503Z,97.70
2018-10-09T10:30:01.813Z,98.40
2018-10-09T10:31:05.201Z,99.30
2018-10-09T10:32:08.561Z,99.00
2018-10-09T10:33:11.973Z,99.40
2018-10-09T10:34:15.331Z,98.60
2018-10-09T10:35:18.891Z,98.20
2018-10-09T10:36:22.242Z,98.40
2018-10-09T10:37:28.607Z,99.00
2018-10-09T10:38:32.021Z,99.10
2018-10-09T10:39:35.476Z,99.20
2018-10-09T10:40:38.904Z,98.60
2018-10-09T10:41:42.600Z,98.40
2018-10-09T10:42:45.968Z,98.70
2018-10-09T10:43:49.316Z,99.00
2018-10-09T10:44:52.714Z,99.20
2018-10-09T10:45:56.081Z,98.80
2018-10-09T10:46:59.452Z,99.00
2018-10-09T10:48:02.807Z,98.40
2018-10-09T10:49:09.245Z,98.40
2018-10-09T10:50:12.612Z,98.00
2018-10-09T10:51:15.964Z,97.60
2018-10-09T10:52:19.317Z,97.60
2018-10-09T10:53:22.668Z,98.00
2018-10-09T10:54:26.025Z,99.10
2018-10-09T10:55:29.420Z,99.90
2018-10-09T10:56:32.960Z,99.90
2018-10-09T10:57:36.407Z,99.90
2018-10-09T10:58:39.782Z,99.90
2018-10-09T10:59:43.148Z,99.90
2018-10-09T11:00:46.500Z,99.90
2018-10-09T11:01:50.070Z,99.90
2018-10-09T11:02:53.295Z,99.90
2018-10-09T11:03:57.084Z,99.90
2018-10-09T11:05:00.437Z,99.90
2018-10-09T11:06:03.781Z,99.90
2018-10-09T11:07:07.176Z,99.90
2018-10-09T11:08:10.549Z,99.90
2018-10-09T11:09:13.920Z,99.90
2018-10-09T11:10:17.321Z,99.90
2018-10-09T11:11:20.884Z,99.90
2018-10-09T11:12:24.256Z,99.90
2018-10-09T11:13:27.621Z,99.90
2018-10-09T11:14:30.998Z,99.90
2018-10-09T11:15:34.392Z,99.90
2018-10-09T11:16:37.745Z,99.90
2018-10-09T11:17:41.106Z,99.90
2018-10-09T11:18:44.475Z,99.90
2018-10-09T11:19:47.836Z,99.90
2018-10-09T11:20:51.232Z,99.90
2018-10-09T11:21:54.580Z,99.90
2018-10-09T11:22:57.996Z,99.90
2018-10-09T11:25:10.940Z,99.90
2018-10-09T11:26:14.349Z,99.90
2018-10-09T11:27:17.769Z,99.90
2018-10-09T11:28:21.117Z,99.90
2018-10-09T11:29:24.485Z,99.90
2018-10-09T11:30:27.838Z,99.90
2018-10-09T11:31:31.176Z,99.90
2018-10-09T11:32:34.671Z,99.90
2018-10-09T11:33:37.978Z,99.90
2018-10-09T11:34:41.386Z,99.90
2018-10-09T11:35:44.799Z,99.90
2018-10-09T11:36:48.148Z,99.90
2018-10-09T11:37:51.598Z,99.90
2018-10-09T11:38:55.003Z,99.90
2018-10-09T11:39:58.353Z,99.90
2018-10-09T11:41:01.713Z,99.90
2018-10-09T11:42:05.055Z,99.90
2018-10-09T11:43:08.444Z,99.90
2018-10-09T11:44:11.793Z,99.90
2018-10-09T11:45:15.132Z,99.90
2018-10-09T11:46:18.485Z,99.90
2018-10-09T11:47:21.845Z,99.90
2018-10-09T11:48:25.233Z,99.90
2018-10-09T11:49:28.580Z,99.90
2018-10-09T11:50:31.943Z,99.90
2018-10-09T11:51:35.301Z,99.90
2018-10-09T11:52:38.678Z,99.90
2018-10-09T11:53:42.062Z,99.90
2018-10-09T11:54:45.432Z,99.90
2018-10-09T11:55:48.788Z,99.90
2018-10-09T11:56:52.190Z,99.90
2018-10-09T11:57:55.873Z,99.90
2018-10-09T11:58:59.237Z,99.90
2018-10-09T12:00:02.629Z,99.90
2018-10-09T12:01:07.933Z,99.90
2018-10-09T12:02:11.403Z,99.90
2018-10-09T12:03:14.761Z,99.90
2018-10-09T12:04:18.118Z,99.90
2018-10-09T12:05:21.500Z,99.90
2018-10-09T12:06:24.905Z,99.90
2018-10-09T12:07:28.284Z,99.90
2018-10-09T12:08:31.704Z,99.90
2018-10-09T12:09:35.092Z,99.90
2018-10-09T12:10:38.444Z,99.90
2018-10-09T12:11:42.233Z,99.90
2018-10-09T12:12:45.615Z,99.90
2018-10-09T12:13:48.992Z,99.90
2018-10-09T12:14:52.356Z,99.90
2018-10-09T12:15:55.788Z,99.90
2018-10-09T12:16:59.124Z,99.90
2018-10-09T12:18:02.493Z,99.90
2018-10-09T12:36:58.733Z,96.00
2018-10-09T12:38:02.124Z,96.20
2018-10-09T12:39:09.125Z,96.20
2018-10-09T12:40:12.589Z,95.70
2018-10-09T12:41:15.934Z,94.90
2018-10-09T12:42:19.290Z,95.30
2018-10-09T12:43:22.634Z,95.00
2018-10-09T12:44:26.046Z,94.90
2018-10-09T12:45:29.383Z,94.60
2018-10-09T12:46:32.767Z,94.60
2018-10-09T12:47:36.141Z,95.10
2018-10-09T12:48:39.530Z,94.80
2018-10-09T12:49:42.937Z,94.90
2018-10-09T12:50:46.303Z,95.10
2018-10-09T12:51:49.661Z,94.50
2018-10-09T12:52:53.330Z,95.00
2018-10-09T12:53:56.652Z,95.60
2018-10-09T12:55:00.078Z,95.50
2018-10-09T12:56:03.428Z,95.10
2018-10-09T12:57:06.850Z,95.40
2018-10-09T12:58:10.220Z,95.60
2018-10-09T12:59:13.569Z,95.00
2018-10-09T13:00:16.954Z,94.70
2018-10-09T13:01:20.352Z,94.60
2018-10-09T13:02:23.695Z,94.10
2018-10-09T13:03:27.038Z,93.50
2018-10-09T13:04:30.393Z,93.80
2018-10-09T13:05:33.732Z,93.40
2018-10-09T13:06:37.128Z,92.90
2018-10-09T13:07:40.478Z,92.80
2018-10-09T13:08:43.879Z,93.10
2018-10-09T13:09:47.229Z,93.10
2018-10-09T13:10:51.021Z,92.90
2018-10-09T13:11:54.379Z,92.80
2018-10-09T13:12:57.721Z,92.70
2018-10-09T13:14:01.084Z,93.10
2018-10-09T13:15:04.475Z,93.20
2018-10-09T13:16:07.977Z,92.90
2018-10-09T13:17:11.400Z,92.70
2018-10-09T13:18:14.710Z,92.50
2018-10-09T13:19:18.049Z,92.70
2018-10-09T13:20:21.402Z,93.70
2018-10-09T13:21:24.928Z,93.10
2018-10-09T13:22:28.595Z,93.30
2018-10-09T13:23:31.596Z,93.30
2018-10-09T13:24:34.950Z,93.50
2018-10-09T13:25:38.316Z,93.60
2018-10-09T13:26:41.705Z,93.40
2018-10-09T13:27:45.071Z,93.20
2018-10-09T13:28:48.417Z,92.90
2018-10-09T13:29:51.765Z,93.00
2018-10-09T13:30:55.143Z,92.70
2018-10-09T13:31:58.520Z,93.60
2018-10-09T13:33:01.864Z,92.50
2018-10-09T13:34:05.228Z,92.60
2018-10-09T13:35:08.580Z,91.60
2018-10-09T13:36:11.960Z,92.40
2018-10-09T13:37:15.337Z,91.60
2018-10-09T13:38:18.720Z,91.60
2018-10-09T13:39:22.112Z,91.40
2018-10-09T13:40:25.462Z,92.30
2018-10-09T13:41:28.813Z,92.60
2018-10-09T13:42:32.152Z,92.90
2018-10-09T13:43:35.532Z,93.10
2018-10-09T13:44:38.885Z,92.40
2018-10-09T13:45:42.228Z,92.40
2018-10-09T13:46:45.589Z,92.50
2018-10-09T13:47:49.066Z,92.30
2018-10-09T13:48:52.388Z,92.40
2018-10-09T13:49:55.721Z,92.50
2018-10-09T13:50:59.200Z,92.70
2018-10-09T13:52:03.227Z,91.90
2018-10-09T13:53:06.609Z,91.50
2018-10-09T13:54:09.955Z,92.00
2018-10-09T13:55:13.337Z,91.90
2018-10-09T13:56:16.701Z,91.90